sensor_id;sensor_type;location;lat;lon;timestamp;P1;durP1;ratioP1;P2;durP2;ratioP2
18905;SDS011;9585;51.018;4.282;2022-07-10T00:00:50;4.70;;;2.22;;
18905;SDS011;9585;51.018;4.282;2022-07-10T00:03:18;3.35;;;2.17;;
18905;SDS011;9585;51.018;4.282;2022-07-10T00:05:46;2.53;;;2.10;;
18905;SDS011;9585;51.018;4.282;2022-07-10T00:08:14;3.05;;;2.10;;
18905;SDS011;9585;51.018;4.282;2022-07-10T00:10:41;4.32;;;2.40;;
18905;SDS011;9585;51.018;4.282;2022-07-10T00:13:10;5.22;;;2.65;;
18905;SDS011;9585;51.018;4.282;2022-07-10T00:15:38;3.40;;;2.30;;
18905;SDS011;9585;51.018;4.282;2022-07-10T00:18:05;3.20;;;2.30;;
18905;SDS011;9585;51.018;4.282;2022-07-10T00:20:32;2.88;;;2.22;;
18905;SDS011;9585;51.018;4.282;2022-07-10T00:23:00;2.83;;;2.08;;
18905;SDS011;9585;51.018;4.282;2022-07-10T00:25:27;4.35;;;2.40;;
18905;SDS011;9585;51.018;4.282;2022-07-10T00:27:55;4.78;;;2.45;;
18905;SDS011;9585;51.018;4.282;2022-07-10T00:30:24;3.08;;;2.40;;
18905;SDS011;9585;51.018;4.282;2022-07-10T00:32:51;3.47;;;2.35;;
18905;SDS011;9585;51.018;4.282;2022-07-10T00:35:19;4.55;;;2.05;;
18905;SDS011;9585;51.018;4.282;2022-07-10T00:37:46;3.25;;;2.28;;
18905;SDS011;9585;51.018;4.282;2022-07-10T00:40:13;4.03;;;2.40;;
18905;SDS011;9585;51.018;4.282;2022-07-10T00:42:41;3.42;;;2.28;;
18905;SDS011;9585;51.018;4.282;2022-07-10T00:45:08;5.10;;;2.45;;
18905;SDS011;9585;51.018;4.282;2022-07-10T00:47:38;3.35;;;2.22;;
18905;SDS011;9585;51.018;4.282;2022-07-10T00:50:06;3.88;;;2.03;;
18905;SDS011;9585;51.018;4.282;2022-07-10T00:52:34;5.22;;;2.35;;
18905;SDS011;9585;51.018;4.282;2022-07-10T00:55:04;2.35;;;2.10;;
18905;SDS011;9585;51.018;4.282;2022-07-10T00:57:32;5.22;;;2.40;;
18905;SDS011;9585;51.018;4.282;2022-07-10T01:00:02;5.50;;;2.20;;
18905;SDS011;9585;51.018;4.282;2022-07-10T01:02:30;3.25;;;2.45;;
18905;SDS011;9585;51.018;4.282;2022-07-10T01:04:59;3.03;;;2.33;;
18905;SDS011;9585;51.018;4.282;2022-07-10T01:07:26;4.05;;;2.40;;
18905;SDS011;9585;51.018;4.282;2022-07-10T01:09:54;4.13;;;2.25;;
18905;SDS011;9585;51.018;4.282;2022-07-10T01:12:24;3.92;;;2.28;;
18905;SDS011;9585;51.018;4.282;2022-07-10T01:14:52;5.47;;;2.20;;
18905;SDS011;9585;51.018;4.282;2022-07-10T01:17:19;2.58;;;2.13;;
18905;SDS011;9585;51.018;4.282;2022-07-10T01:19:47;3.13;;;2.40;;
18905;SDS011;9585;51.018;4.282;2022-07-10T01:22:16;2.95;;;2.50;;
18905;SDS011;9585;51.018;4.282;2022-07-10T01:24:43;2.97;;;2.28;;
18905;SDS011;9585;51.018;4.282;2022-07-10T01:27:11;4.43;;;2.42;;
18905;SDS011;9585;51.018;4.282;2022-07-10T01:29:38;3.95;;;2.33;;
18905;SDS011;9585;51.018;4.282;2022-07-10T01:32:06;2.85;;;2.40;;
18905;SDS011;9585;51.018;4.282;2022-07-10T01:34:34;5.30;;;2.65;;
18905;SDS011;9585;51.018;4.282;2022-07-10T01:37:01;5.32;;;2.90;;
18905;SDS011;9585;51.018;4.282;2022-07-10T01:39:30;4.43;;;3.28;;
18905;SDS011;9585;51.018;4.282;2022-07-10T01:41:58;4.25;;;3.00;;
18905;SDS011;9585;51.018;4.282;2022-07-10T01:44:25;3.25;;;2.65;;
18905;SDS011;9585;51.018;4.282;2022-07-10T01:46:52;3.17;;;2.58;;
18905;SDS011;9585;51.018;4.282;2022-07-10T01:49:20;4.30;;;3.00;;
18905;SDS011;9585;51.018;4.282;2022-07-10T01:51:47;2.88;;;2.60;;
18905;SDS011;9585;51.018;4.282;2022-07-10T01:54:14;3.65;;;2.83;;
18905;SDS011;9585;51.018;4.282;2022-07-10T01:56:43;4.50;;;3.08;;
18905;SDS011;9585;51.018;4.282;2022-07-10T01:59:10;3.85;;;3.08;;
18905;SDS011;9585;51.018;4.282;2022-07-10T02:01:37;3.40;;;2.70;;
18905;SDS011;9585;51.018;4.282;2022-07-10T02:04:04;3.45;;;2.80;;
18905;SDS011;9585;51.018;4.282;2022-07-10T02:06:49;3.22;;;2.90;;
18905;SDS011;9585;51.018;4.282;2022-07-10T02:09:16;3.25;;;2.90;;
18905;SDS011;9585;51.018;4.282;2022-07-10T02:11:46;3.58;;;2.72;;
18905;SDS011;9585;51.018;4.282;2022-07-10T02:14:13;6.30;;;2.88;;
18905;SDS011;9585;51.018;4.282;2022-07-10T02:16:40;3.60;;;2.80;;
18905;SDS011;9585;51.018;4.282;2022-07-10T02:19:09;3.88;;;2.83;;
18905;SDS011;9585;51.018;4.282;2022-07-10T02:21:37;3.70;;;2.47;;
18905;SDS011;9585;51.018;4.282;2022-07-10T02:24:04;3.70;;;3.10;;
18905;SDS011;9585;51.018;4.282;2022-07-10T02:26:31;3.35;;;2.60;;
18905;SDS011;9585;51.018;4.282;2022-07-10T02:29:00;3.70;;;3.30;;
18905;SDS011;9585;51.018;4.282;2022-07-10T02:31:27;5.47;;;3.40;;
18905;SDS011;9585;51.018;4.282;2022-07-10T02:33:55;4.07;;;3.10;;
18905;SDS011;9585;51.018;4.282;2022-07-10T02:36:22;4.88;;;3.15;;
18905;SDS011;9585;51.018;4.282;2022-07-10T02:38:49;4.80;;;3.30;;
18905;SDS011;9585;51.018;4.282;2022-07-10T02:41:17;4.50;;;2.88;;
18905;SDS011;9585;51.018;4.282;2022-07-10T02:43:44;5.15;;;2.83;;
18905;SDS011;9585;51.018;4.282;2022-07-10T02:46:13;3.80;;;3.17;;
18905;SDS011;9585;51.018;4.282;2022-07-10T02:48:40;3.15;;;2.85;;
18905;SDS011;9585;51.018;4.282;2022-07-10T02:51:08;4.75;;;3.28;;
18905;SDS011;9585;51.018;4.282;2022-07-10T02:53:35;4.13;;;3.55;;
18905;SDS011;9585;51.018;4.282;2022-07-10T02:56:02;5.05;;;3.63;;
18905;SDS011;9585;51.018;4.282;2022-07-10T02:58:30;5.63;;;3.22;;
18905;SDS011;9585;51.018;4.282;2022-07-10T03:00:58;5.18;;;3.28;;
18905;SDS011;9585;51.018;4.282;2022-07-10T03:03:26;3.78;;;3.08;;
18905;SDS011;9585;51.018;4.282;2022-07-10T03:05:54;5.13;;;3.35;;
18905;SDS011;9585;51.018;4.282;2022-07-10T03:08:21;4.88;;;3.20;;
18905;SDS011;9585;51.018;4.282;2022-07-10T03:10:48;4.70;;;3.50;;
18905;SDS011;9585;51.018;4.282;2022-07-10T03:13:16;4.38;;;3.08;;
18905;SDS011;9585;51.018;4.282;2022-07-10T03:15:43;5.63;;;3.90;;
18905;SDS011;9585;51.018;4.282;2022-07-10T03:18:10;3.75;;;3.42;;
18905;SDS011;9585;51.018;4.282;2022-07-10T03:20:39;3.97;;;3.55;;
18905;SDS011;9585;51.018;4.282;2022-07-10T03:23:06;3.90;;;3.42;;
18905;SDS011;9585;51.018;4.282;2022-07-10T03:25:33;4.88;;;3.50;;
18905;SDS011;9585;51.018;4.282;2022-07-10T03:28:00;4.70;;;3.20;;
18905;SDS011;9585;51.018;4.282;2022-07-10T03:30:28;4.43;;;3.67;;
18905;SDS011;9585;51.018;4.282;2022-07-10T03:32:55;3.47;;;3.08;;
18905;SDS011;9585;51.018;4.282;2022-07-10T03:35:22;4.18;;;3.50;;
18905;SDS011;9585;51.018;4.282;2022-07-10T03:37:52;5.10;;;3.95;;
18905;SDS011;9585;51.018;4.282;2022-07-10T03:40:19;3.90;;;3.33;;
18905;SDS011;9585;51.018;4.282;2022-07-10T03:42:46;4.05;;;3.25;;
18905;SDS011;9585;51.018;4.282;2022-07-10T03:45:14;5.82;;;3.90;;
18905;SDS011;9585;51.018;4.282;2022-07-10T03:47:41;4.18;;;3.25;;
18905;SDS011;9585;51.018;4.282;2022-07-10T03:50:09;5.28;;;4.20;;
18905;SDS011;9585;51.018;4.282;2022-07-10T03:52:36;4.00;;;3.60;;
18905;SDS011;9585;51.018;4.282;2022-07-10T03:55:05;4.28;;;3.72;;
18905;SDS011;9585;51.018;4.282;2022-07-10T03:57:36;6.72;;;4.25;;
18905;SDS011;9585;51.018;4.282;2022-07-10T04:00:23;5.95;;;4.10;;
18905;SDS011;9585;51.018;4.282;2022-07-10T04:02:55;4.72;;;3.72;;
18905;SDS011;9585;51.018;4.282;2022-07-10T04:05:22;6.65;;;3.88;;
18905;SDS011;9585;51.018;4.282;2022-07-10T04:07:50;4.65;;;3.30;;
18905;SDS011;9585;51.018;4.282;2022-07-10T04:10:19;4.05;;;3.35;;
18905;SDS011;9585;51.018;4.282;2022-07-10T04:12:47;4.55;;;3.72;;
18905;SDS011;9585;51.018;4.282;2022-07-10T04:15:14;5.53;;;3.67;;
18905;SDS011;9585;51.018;4.282;2022-07-10T04:17:42;3.97;;;3.47;;
18905;SDS011;9585;51.018;4.282;2022-07-10T04:20:09;5.38;;;3.97;;
18905;SDS011;9585;51.018;4.282;2022-07-10T04:22:37;5.47;;;3.55;;
18905;SDS011;9585;51.018;4.282;2022-07-10T04:25:05;4.95;;;3.47;;
18905;SDS011;9585;51.018;4.282;2022-07-10T04:27:34;6.13;;;4.13;;
18905;SDS011;9585;51.018;4.282;2022-07-10T04:30:01;4.72;;;3.38;;
18905;SDS011;9585;51.018;4.282;2022-07-10T04:32:29;3.78;;;3.17;;
18905;SDS011;9585;51.018;4.282;2022-07-10T04:34:57;6.07;;;3.80;;
18905;SDS011;9585;51.018;4.282;2022-07-10T04:37:24;4.50;;;3.58;;
18905;SDS011;9585;51.018;4.282;2022-07-10T04:39:51;4.85;;;3.30;;
18905;SDS011;9585;51.018;4.282;2022-07-10T04:42:19;5.53;;;4.03;;
18905;SDS011;9585;51.018;4.282;2022-07-10T04:44:47;6.72;;;3.78;;
18905;SDS011;9585;51.018;4.282;2022-07-10T04:47:14;5.63;;;3.30;;
18905;SDS011;9585;51.018;4.282;2022-07-10T04:49:42;4.13;;;3.03;;
18905;SDS011;9585;51.018;4.282;2022-07-10T04:52:09;3.28;;;2.67;;
18905;SDS011;9585;51.018;4.282;2022-07-10T04:54:36;3.72;;;3.30;;
18905;SDS011;9585;51.018;4.282;2022-07-10T04:57:04;3.22;;;2.92;;
18905;SDS011;9585;51.018;4.282;2022-07-10T04:59:31;3.28;;;2.95;;
18905;SDS011;9585;51.018;4.282;2022-07-10T05:02:00;3.65;;;2.50;;
18905;SDS011;9585;51.018;4.282;2022-07-10T05:04:27;4.47;;;2.92;;
18905;SDS011;9585;51.018;4.282;2022-07-10T05:06:54;2.92;;;2.70;;
18905;SDS011;9585;51.018;4.282;2022-07-10T05:09:21;3.47;;;2.53;;
18905;SDS011;9585;51.018;4.282;2022-07-10T05:11:49;2.97;;;2.50;;
18905;SDS011;9585;51.018;4.282;2022-07-10T05:14:16;3.35;;;2.38;;
18905;SDS011;9585;51.018;4.282;2022-07-10T05:16:44;3.55;;;2.38;;
18905;SDS011;9585;51.018;4.282;2022-07-10T05:19:12;4.25;;;2.95;;
18905;SDS011;9585;51.018;4.282;2022-07-10T05:21:40;3.05;;;2.15;;
18905;SDS011;9585;51.018;4.282;2022-07-10T05:24:07;3.55;;;2.13;;
18905;SDS011;9585;51.018;4.282;2022-07-10T05:26:34;3.72;;;2.30;;
18905;SDS011;9585;51.018;4.282;2022-07-10T05:29:02;3.33;;;2.00;;
18905;SDS011;9585;51.018;4.282;2022-07-10T05:31:29;2.70;;;1.92;;
18905;SDS011;9585;51.018;4.282;2022-07-10T05:33:57;3.15;;;1.95;;
18905;SDS011;9585;51.018;4.282;2022-07-10T05:36:25;2.88;;;1.77;;
18905;SDS011;9585;51.018;4.282;2022-07-10T05:38:53;4.13;;;1.40;;
18905;SDS011;9585;51.018;4.282;2022-07-10T05:41:20;3.35;;;1.60;;
18905;SDS011;9585;51.018;4.282;2022-07-10T05:43:50;2.17;;;1.30;;
18905;SDS011;9585;51.018;4.282;2022-07-10T05:46:17;2.83;;;1.30;;
18905;SDS011;9585;51.018;4.282;2022-07-10T05:48:45;3.03;;;1.40;;
18905;SDS011;9585;51.018;4.282;2022-07-10T05:51:12;4.95;;;1.50;;
18905;SDS011;9585;51.018;4.282;2022-07-10T05:53:41;3.72;;;1.52;;
18905;SDS011;9585;51.018;4.282;2022-07-10T05:56:08;2.80;;;1.60;;
18905;SDS011;9585;51.018;4.282;2022-07-10T05:58:36;2.45;;;1.60;;
18905;SDS011;9585;51.018;4.282;2022-07-10T06:01:03;3.20;;;1.50;;
18905;SDS011;9585;51.018;4.282;2022-07-10T06:03:31;4.03;;;1.70;;
18905;SDS011;9585;51.018;4.282;2022-07-10T06:05:58;2.70;;;1.73;;
18905;SDS011;9585;51.018;4.282;2022-07-10T06:08:26;2.83;;;1.60;;
18905;SDS011;9585;51.018;4.282;2022-07-10T06:10:55;3.03;;;1.50;;
18905;SDS011;9585;51.018;4.282;2022-07-10T06:13:22;1.92;;;1.60;;
18905;SDS011;9585;51.018;4.282;2022-07-10T06:15:50;2.53;;;1.50;;
18905;SDS011;9585;51.018;4.282;2022-07-10T06:18:17;2.45;;;1.48;;
18905;SDS011;9585;51.018;4.282;2022-07-10T06:20:45;2.38;;;1.50;;
18905;SDS011;9585;51.018;4.282;2022-07-10T06:23:12;2.38;;;1.70;;
18905;SDS011;9585;51.018;4.282;2022-07-10T06:25:39;5.10;;;1.92;;
18905;SDS011;9585;51.018;4.282;2022-07-10T06:28:08;2.47;;;1.30;;
18905;SDS011;9585;51.018;4.282;2022-07-10T06:30:35;2.47;;;1.50;;
18905;SDS011;9585;51.018;4.282;2022-07-10T06:33:03;4.57;;;1.60;;
18905;SDS011;9585;51.018;4.282;2022-07-10T06:35:30;3.38;;;1.60;;
18905;SDS011;9585;51.018;4.282;2022-07-10T06:37:57;2.05;;;1.50;;
18905;SDS011;9585;51.018;4.282;2022-07-10T06:40:24;1.98;;;1.30;;
18905;SDS011;9585;51.018;4.282;2022-07-10T06:42:52;2.80;;;1.40;;
18905;SDS011;9585;51.018;4.282;2022-07-10T06:45:21;3.47;;;1.67;;
18905;SDS011;9585;51.018;4.282;2022-07-10T06:47:48;2.60;;;1.38;;
18905;SDS011;9585;51.018;4.282;2022-07-10T06:50:24;3.65;;;1.42;;
18905;SDS011;9585;51.018;4.282;2022-07-10T06:52:53;3.03;;;1.30;;
18905;SDS011;9585;51.018;4.282;2022-07-10T06:55:20;2.40;;;1.30;;
18905;SDS011;9585;51.018;4.282;2022-07-10T06:57:48;4.20;;;1.40;;
18905;SDS011;9585;51.018;4.282;2022-07-10T07:00:15;2.60;;;1.23;;
18905;SDS011;9585;51.018;4.282;2022-07-10T07:02:44;2.92;;;1.20;;
18905;SDS011;9585;51.018;4.282;2022-07-10T07:05:12;3.08;;;1.20;;
18905;SDS011;9585;51.018;4.282;2022-07-10T07:07:41;2.95;;;1.10;;
18905;SDS011;9585;51.018;4.282;2022-07-10T07:10:08;3.45;;;1.02;;
18905;SDS011;9585;51.018;4.282;2022-07-10T07:12:36;3.10;;;1.20;;
18905;SDS011;9585;51.018;4.282;2022-07-10T07:15:04;5.00;;;1.13;;
18905;SDS011;9585;51.018;4.282;2022-07-10T07:17:32;3.15;;;1.10;;
18905;SDS011;9585;51.018;4.282;2022-07-10T07:20:23;2.78;;;1.00;;
18905;SDS011;9585;51.018;4.282;2022-07-10T07:23:09;2.95;;;1.00;;
18905;SDS011;9585;51.018;4.282;2022-07-10T07:25:36;3.13;;;1.05;;
18905;SDS011;9585;51.018;4.282;2022-07-10T07:28:07;1.85;;;0.95;;
18905;SDS011;9585;51.018;4.282;2022-07-10T07:30:35;1.90;;;1.10;;
18905;SDS011;9585;51.018;4.282;2022-07-10T07:33:02;2.15;;;0.82;;
18905;SDS011;9585;51.018;4.282;2022-07-10T07:35:31;2.38;;;0.93;;
18905;SDS011;9585;51.018;4.282;2022-07-10T07:38:00;2.55;;;1.08;;
18905;SDS011;9585;51.018;4.282;2022-07-10T07:40:29;2.92;;;0.90;;
18905;SDS011;9585;51.018;4.282;2022-07-10T07:42:56;3.92;;;0.80;;
18905;SDS011;9585;51.018;4.282;2022-07-10T07:45:24;2.10;;;0.98;;
18905;SDS011;9585;51.018;4.282;2022-07-10T07:47:52;2.47;;;0.70;;
18905;SDS011;9585;51.018;4.282;2022-07-10T07:50:22;2.17;;;1.10;;
18905;SDS011;9585;51.018;4.282;2022-07-10T07:52:52;1.65;;;0.80;;
18905;SDS011;9585;51.018;4.282;2022-07-10T07:55:20;1.90;;;0.77;;
18905;SDS011;9585;51.018;4.282;2022-07-10T07:57:50;2.10;;;0.90;;
18905;SDS011;9585;51.018;4.282;2022-07-10T08:00:19;2.63;;;1.00;;
18905;SDS011;9585;51.018;4.282;2022-07-10T08:02:47;2.05;;;0.70;;
18905;SDS011;9585;51.018;4.282;2022-07-10T08:05:15;2.33;;;0.90;;
18905;SDS011;9585;51.018;4.282;2022-07-10T08:07:43;2.97;;;1.00;;
18905;SDS011;9585;51.018;4.282;2022-07-10T08:10:15;1.63;;;0.85;;
18905;SDS011;9585;51.018;4.282;2022-07-10T08:12:43;2.47;;;1.00;;
18905;SDS011;9585;51.018;4.282;2022-07-10T08:15:12;2.78;;;1.00;;
18905;SDS011;9585;51.018;4.282;2022-07-10T08:17:41;1.90;;;1.00;;
18905;SDS011;9585;51.018;4.282;2022-07-10T08:20:10;1.25;;;0.80;;
18905;SDS011;9585;51.018;4.282;2022-07-10T08:22:39;1.75;;;0.95;;
18905;SDS011;9585;51.018;4.282;2022-07-10T08:25:07;2.78;;;0.80;;
18905;SDS011;9585;51.018;4.282;2022-07-10T08:27:37;4.63;;;1.00;;
18905;SDS011;9585;51.018;4.282;2022-07-10T08:30:05;2.92;;;1.00;;
18905;SDS011;9585;51.018;4.282;2022-07-10T08:32:34;3.53;;;1.35;;
18905;SDS011;9585;51.018;4.282;2022-07-10T08:35:05;3.33;;;1.20;;
18905;SDS011;9585;51.018;4.282;2022-07-10T08:37:36;2.88;;;1.05;;
18905;SDS011;9585;51.018;4.282;2022-07-10T08:40:04;2.40;;;1.08;;
18905;SDS011;9585;51.018;4.282;2022-07-10T08:42:33;2.72;;;1.10;;
18905;SDS011;9585;51.018;4.282;2022-07-10T08:45:02;2.85;;;1.33;;
18905;SDS011;9585;51.018;4.282;2022-07-10T08:47:30;2.60;;;1.20;;
18905;SDS011;9585;51.018;4.282;2022-07-10T08:50:00;3.15;;;1.20;;
18905;SDS011;9585;51.018;4.282;2022-07-10T08:52:31;3.38;;;1.30;;
18905;SDS011;9585;51.018;4.282;2022-07-10T08:55:11;2.33;;;1.17;;
18905;SDS011;9585;51.018;4.282;2022-07-10T08:57:40;1.38;;;0.95;;
18905;SDS011;9585;51.018;4.282;2022-07-10T09:00:11;2.30;;;1.02;;
18905;SDS011;9585;51.018;4.282;2022-07-10T09:02:38;4.72;;;3.15;;
18905;SDS011;9585;51.018;4.282;2022-07-10T09:05:06;2.67;;;1.52;;
18905;SDS011;9585;51.018;4.282;2022-07-10T09:07:35;2.80;;;1.30;;
18905;SDS011;9585;51.018;4.282;2022-07-10T09:10:05;2.78;;;1.05;;
18905;SDS011;9585;51.018;4.282;2022-07-10T09:12:48;3.42;;;1.20;;
18905;SDS011;9585;51.018;4.282;2022-07-10T09:15:18;2.42;;;1.05;;
18905;SDS011;9585;51.018;4.282;2022-07-10T09:17:55;3.08;;;1.02;;
18905;SDS011;9585;51.018;4.282;2022-07-10T09:20:23;2.90;;;1.10;;
18905;SDS011;9585;51.018;4.282;2022-07-10T09:23:08;2.33;;;1.20;;
18905;SDS011;9585;51.018;4.282;2022-07-10T09:25:41;3.22;;;1.30;;
18905;SDS011;9585;51.018;4.282;2022-07-10T09:28:09;2.95;;;1.40;;
18905;SDS011;9585;51.018;4.282;2022-07-10T09:30:38;3.47;;;1.30;;
18905;SDS011;9585;51.018;4.282;2022-07-10T09:33:19;3.40;;;1.40;;
18905;SDS011;9585;51.018;4.282;2022-07-10T09:35:55;3.70;;;1.13;;
18905;SDS011;9585;51.018;4.282;2022-07-10T09:38:48;3.35;;;1.30;;
18905;SDS011;9585;51.018;4.282;2022-07-10T09:41:20;2.33;;;1.00;;
18905;SDS011;9585;51.018;4.282;2022-07-10T09:43:49;2.70;;;1.40;;
18905;SDS011;9585;51.018;4.282;2022-07-10T09:46:22;1.92;;;1.20;;
18905;SDS011;9585;51.018;4.282;2022-07-10T09:49:06;2.85;;;1.17;;
18905;SDS011;9585;51.018;4.282;2022-07-10T09:51:36;4.32;;;1.13;;
18905;SDS011;9585;51.018;4.282;2022-07-10T09:54:12;1.40;;;0.93;;
18905;SDS011;9585;51.018;4.282;2022-07-10T09:56:44;2.70;;;1.00;;
18905;SDS011;9585;51.018;4.282;2022-07-10T09:59:13;2.80;;;1.15;;
18905;SDS011;9585;51.018;4.282;2022-07-10T10:01:46;2.28;;;1.02;;
18905;SDS011;9585;51.018;4.282;2022-07-10T10:04:14;2.70;;;1.20;;
18905;SDS011;9585;51.018;4.282;2022-07-10T10:06:43;2.67;;;1.02;;
18905;SDS011;9585;51.018;4.282;2022-07-10T10:09:15;2.78;;;1.00;;
18905;SDS011;9585;51.018;4.282;2022-07-10T10:11:49;4.60;;;1.20;;
18905;SDS011;9585;51.018;4.282;2022-07-10T10:14:22;2.53;;;1.20;;
18905;SDS011;9585;51.018;4.282;2022-07-10T10:16:54;2.10;;;1.10;;
18905;SDS011;9585;51.018;4.282;2022-07-10T10:19:23;2.67;;;1.35;;
18905;SDS011;9585;51.018;4.282;2022-07-10T10:22:07;4.28;;;1.20;;
18905;SDS011;9585;51.018;4.282;2022-07-10T10:24:35;1.55;;;0.93;;
18905;SDS011;9585;51.018;4.282;2022-07-10T10:27:05;2.80;;;1.20;;
18905;SDS011;9585;51.018;4.282;2022-07-10T10:29:34;1.38;;;0.88;;
18905;SDS011;9585;51.018;4.282;2022-07-10T10:32:04;3.42;;;1.20;;
18905;SDS011;9585;51.018;4.282;2022-07-10T10:34:37;3.60;;;1.10;;
18905;SDS011;9585;51.018;4.282;2022-07-10T10:37:08;2.38;;;1.10;;
18905;SDS011;9585;51.018;4.282;2022-07-10T10:40:01;1.40;;;0.90;;
18905;SDS011;9585;51.018;4.282;2022-07-10T10:42:33;2.45;;;1.13;;
18905;SDS011;9585;51.018;4.282;2022-07-10T10:48:00;3.70;;;1.38;;
18905;SDS011;9585;51.018;4.282;2022-07-10T10:50:37;1.80;;;0.82;;
18905;SDS011;9585;51.018;4.282;2022-07-10T10:53:11;2.75;;;1.10;;
18905;SDS011;9585;51.018;4.282;2022-07-10T10:55:41;1.98;;;1.23;;
18905;SDS011;9585;51.018;4.282;2022-07-10T10:58:42;1.52;;;1.00;;
18905;SDS011;9585;51.018;4.282;2022-07-10T11:01:23;1.90;;;0.82;;
18905;SDS011;9585;51.018;4.282;2022-07-10T11:06:45;2.72;;;1.25;;
18905;SDS011;9585;51.018;4.282;2022-07-10T11:09:24;2.78;;;1.10;;
18905;SDS011;9585;51.018;4.282;2022-07-10T11:14:38;1.67;;;1.00;;
18905;SDS011;9585;51.018;4.282;2022-07-10T11:17:07;1.92;;;0.82;;
18905;SDS011;9585;51.018;4.282;2022-07-10T11:19:36;2.10;;;1.10;;
18905;SDS011;9585;51.018;4.282;2022-07-10T11:22:18;2.05;;;1.10;;
18905;SDS011;9585;51.018;4.282;2022-07-10T11:25:11;1.83;;;0.82;;
18905;SDS011;9585;51.018;4.282;2022-07-10T11:28:10;2.03;;;0.90;;
18905;SDS011;9585;51.018;4.282;2022-07-10T11:30:45;2.58;;;0.80;;
18905;SDS011;9585;51.018;4.282;2022-07-10T11:33:15;2.15;;;0.90;;
18905;SDS011;9585;51.018;4.282;2022-07-10T11:35:45;1.80;;;0.93;;
18905;SDS011;9585;51.018;4.282;2022-07-10T11:38:18;2.03;;;0.88;;
18905;SDS011;9585;51.018;4.282;2022-07-10T11:40:46;1.40;;;0.80;;
18905;SDS011;9585;51.018;4.282;2022-07-10T11:43:14;1.58;;;0.70;;
18905;SDS011;9585;51.018;4.282;2022-07-10T11:45:45;3.63;;;1.30;;
18905;SDS011;9585;51.018;4.282;2022-07-10T11:48:18;1.83;;;0.93;;
18905;SDS011;9585;51.018;4.282;2022-07-10T11:50:49;0.90;;;0.77;;
18905;SDS011;9585;51.018;4.282;2022-07-10T11:53:24;2.00;;;0.85;;
18905;SDS011;9585;51.018;4.282;2022-07-10T11:55:52;1.85;;;0.95;;
18905;SDS011;9585;51.018;4.282;2022-07-10T11:58:20;1.35;;;0.70;;
18905;SDS011;9585;51.018;4.282;2022-07-10T12:00:58;2.67;;;0.90;;
18905;SDS011;9585;51.018;4.282;2022-07-10T12:03:27;1.45;;;0.80;;
18905;SDS011;9585;51.018;4.282;2022-07-10T12:06:00;2.15;;;0.85;;
18905;SDS011;9585;51.018;4.282;2022-07-10T12:08:29;1.92;;;1.00;;
18905;SDS011;9585;51.018;4.282;2022-07-10T12:11:10;1.55;;;0.77;;
18905;SDS011;9585;51.018;4.282;2022-07-10T12:13:39;2.65;;;0.90;;
18905;SDS011;9585;51.018;4.282;2022-07-10T12:16:06;1.60;;;1.00;;
18905;SDS011;9585;51.018;4.282;2022-07-10T12:18:34;1.85;;;0.82;;
18905;SDS011;9585;51.018;4.282;2022-07-10T12:21:03;2.90;;;0.98;;
18905;SDS011;9585;51.018;4.282;2022-07-10T12:23:30;1.90;;;0.80;;
18905;SDS011;9585;51.018;4.282;2022-07-10T12:26:00;2.03;;;1.00;;
18905;SDS011;9585;51.018;4.282;2022-07-10T12:28:28;3.03;;;1.00;;
18905;SDS011;9585;51.018;4.282;2022-07-10T12:30:55;3.25;;;0.90;;
18905;SDS011;9585;51.018;4.282;2022-07-10T12:33:23;2.00;;;0.80;;
18905;SDS011;9585;51.018;4.282;2022-07-10T12:35:51;2.13;;;0.90;;
18905;SDS011;9585;51.018;4.282;2022-07-10T12:38:23;1.67;;;0.90;;
18905;SDS011;9585;51.018;4.282;2022-07-10T12:40:51;3.10;;;1.08;;
18905;SDS011;9585;51.018;4.282;2022-07-10T12:43:32;1.98;;;0.90;;
18905;SDS011;9585;51.018;4.282;2022-07-10T12:46:13;2.08;;;0.93;;
18905;SDS011;9585;51.018;4.282;2022-07-10T12:48:42;3.28;;;0.90;;
18905;SDS011;9585;51.018;4.282;2022-07-10T12:51:19;1.20;;;0.93;;
18905;SDS011;9585;51.018;4.282;2022-07-10T12:53:49;2.42;;;0.98;;
18905;SDS011;9585;51.018;4.282;2022-07-10T12:59:11;3.13;;;0.90;;
18905;SDS011;9585;51.018;4.282;2022-07-10T13:01:40;0.93;;;0.60;;
18905;SDS011;9585;51.018;4.282;2022-07-10T13:04:09;2.53;;;0.98;;
18905;SDS011;9585;51.018;4.282;2022-07-10T13:06:37;1.13;;;0.70;;
18905;SDS011;9585;51.018;4.282;2022-07-10T13:09:19;3.15;;;1.00;;
18905;SDS011;9585;51.018;4.282;2022-07-10T13:11:48;2.17;;;1.05;;
18905;SDS011;9585;51.018;4.282;2022-07-10T13:14:16;1.25;;;0.70;;
18905;SDS011;9585;51.018;4.282;2022-07-10T13:16:44;2.15;;;1.00;;
18905;SDS011;9585;51.018;4.282;2022-07-10T13:19:11;1.17;;;0.80;;
18905;SDS011;9585;51.018;4.282;2022-07-10T13:21:39;2.97;;;0.80;;
18905;SDS011;9585;51.018;4.282;2022-07-10T13:24:06;2.35;;;0.90;;
18905;SDS011;9585;51.018;4.282;2022-07-10T13:26:35;2.20;;;0.90;;
18905;SDS011;9585;51.018;4.282;2022-07-10T13:29:02;2.80;;;0.90;;
18905;SDS011;9585;51.018;4.282;2022-07-10T13:31:31;1.92;;;0.73;;
18905;SDS011;9585;51.018;4.282;2022-07-10T13:33:59;2.25;;;0.90;;
18905;SDS011;9585;51.018;4.282;2022-07-10T13:36:26;1.80;;;1.00;;
18905;SDS011;9585;51.018;4.282;2022-07-10T13:38:54;2.13;;;0.70;;
18905;SDS011;9585;51.018;4.282;2022-07-10T13:41:21;1.80;;;0.80;;
18905;SDS011;9585;51.018;4.282;2022-07-10T13:43:50;1.80;;;0.90;;
18905;SDS011;9585;51.018;4.282;2022-07-10T13:46:18;1.23;;;0.82;;
18905;SDS011;9585;51.018;4.282;2022-07-10T13:48:45;1.35;;;0.90;;
18905;SDS011;9585;51.018;4.282;2022-07-10T13:51:12;2.05;;;0.90;;
18905;SDS011;9585;51.018;4.282;2022-07-10T13:53:40;3.03;;;0.95;;
18905;SDS011;9585;51.018;4.282;2022-07-10T13:56:07;1.65;;;0.77;;
18905;SDS011;9585;51.018;4.282;2022-07-10T13:58:35;2.25;;;0.80;;
18905;SDS011;9585;51.018;4.282;2022-07-10T14:01:05;1.73;;;0.90;;
18905;SDS011;9585;51.018;4.282;2022-07-10T14:03:32;1.55;;;0.70;;
18905;SDS011;9585;51.018;4.282;2022-07-10T14:05:59;1.15;;;0.63;;
18905;SDS011;9585;51.018;4.282;2022-07-10T14:08:26;1.65;;;0.90;;
18905;SDS011;9585;51.018;4.282;2022-07-10T14:10:54;1.98;;;0.88;;
18905;SDS011;9585;51.018;4.282;2022-07-10T14:13:21;1.45;;;0.70;;
18905;SDS011;9585;51.018;4.282;2022-07-10T14:15:49;2.67;;;0.90;;
18905;SDS011;9585;51.018;4.282;2022-07-10T14:18:18;1.67;;;0.73;;
18905;SDS011;9585;51.018;4.282;2022-07-10T14:20:59;2.00;;;0.50;;
18905;SDS011;9585;51.018;4.282;2022-07-10T14:23:29;1.38;;;0.70;;
18905;SDS011;9585;51.018;4.282;2022-07-10T14:25:58;0.65;;;0.50;;
18905;SDS011;9585;51.018;4.282;2022-07-10T14:28:25;1.25;;;0.57;;
18905;SDS011;9585;51.018;4.282;2022-07-10T14:30:52;1.70;;;0.80;;
18905;SDS011;9585;51.018;4.282;2022-07-10T14:33:22;2.35;;;0.80;;
18905;SDS011;9585;51.018;4.282;2022-07-10T14:35:49;4.32;;;1.00;;
18905;SDS011;9585;51.018;4.282;2022-07-10T14:38:16;1.63;;;0.70;;
18905;SDS011;9585;51.018;4.282;2022-07-10T14:40:44;1.58;;;0.90;;
18905;SDS011;9585;51.018;4.282;2022-07-10T14:43:11;1.17;;;0.80;;
18905;SDS011;9585;51.018;4.282;2022-07-10T14:45:38;1.42;;;0.80;;
18905;SDS011;9585;51.018;4.282;2022-07-10T14:48:06;1.52;;;0.95;;
18905;SDS011;9585;51.018;4.282;2022-07-10T14:50:35;2.60;;;0.95;;
18905;SDS011;9585;51.018;4.282;2022-07-10T14:53:02;1.10;;;0.70;;
18905;SDS011;9585;51.018;4.282;2022-07-10T14:55:31;3.30;;;1.00;;
18905;SDS011;9585;51.018;4.282;2022-07-10T14:57:58;2.80;;;0.88;;
18905;SDS011;9585;51.018;4.282;2022-07-10T15:00:26;1.75;;;0.80;;
18905;SDS011;9585;51.018;4.282;2022-07-10T15:02:53;1.38;;;0.77;;
18905;SDS011;9585;51.018;4.282;2022-07-10T15:05:20;1.23;;;0.65;;
18905;SDS011;9585;51.018;4.282;2022-07-10T15:07:49;1.98;;;0.70;;
18905;SDS011;9585;51.018;4.282;2022-07-10T15:10:17;2.47;;;0.95;;
18905;SDS011;9585;51.018;4.282;2022-07-10T15:12:45;2.35;;;0.70;;
18905;SDS011;9585;51.018;4.282;2022-07-10T15:15:12;1.50;;;0.70;;
18905;SDS011;9585;51.018;4.282;2022-07-10T15:17:40;2.20;;;1.02;;
18905;SDS011;9585;51.018;4.282;2022-07-10T15:20:09;1.38;;;0.70;;
18905;SDS011;9585;51.018;4.282;2022-07-10T15:22:38;0.90;;;0.70;;
18905;SDS011;9585;51.018;4.282;2022-07-10T15:25:07;1.02;;;0.93;;